sensor_id;sensor_type;location;lat;lon;timestamp;P1;durP1;ratioP1;P2;durP2;ratioP2
15474;SDS011;7839;50.462;9.678;2022-10-20T00:04:01;0.50;;;0.40;;
15474;SDS011;7839;50.462;9.678;2022-10-20T00:10:42;0.40;;;0.40;;
15474;SDS011;7839;50.462;9.678;2022-10-20T00:17:22;0.20;;;0.20;;
15474;SDS011;7839;50.462;9.678;2022-10-20T00:24:02;0.63;;;0.40;;
15474;SDS011;7839;50.462;9.678;2022-10-20T00:30:43;0.30;;;0.30;;
15474;SDS011;7839;50.462;9.678;2022-10-20T00:37:23;0.43;;;0.43;;
15474;SDS011;7839;50.462;9.678;2022-10-20T00:51:02;0.30;;;0.30;;
15474;SDS011;7839;50.462;9.678;2022-10-20T00:57:43;0.20;;;0.20;;
15474;SDS011;7839;50.462;9.678;2022-10-20T01:04:27;10.23;;;1.87;;
15474;SDS011;7839;50.462;9.678;2022-10-20T01:11:15;9.23;;;1.90;;
15474;SDS011;7839;50.462;9.678;2022-10-20T01:31:31;0.63;;;0.60;;
15474;SDS011;7839;50.462;9.678;2022-10-20T01:45:01;0.30;;;0.30;;
15474;SDS011;7839;50.462;9.678;2022-10-20T01:51:42;0.37;;;0.37;;
15474;SDS011;7839;50.462;9.678;2022-10-20T02:12:18;30.17;;;2.23;;
15474;SDS011;7839;50.462;9.678;2022-10-20T02:19:00;9.00;;;1.80;;
15474;SDS011;7839;50.462;9.678;2022-10-20T02:25:42;0.63;;;0.63;;
15474;SDS011;7839;50.462;9.678;2022-10-20T02:32:22;23.67;;;2.10;;
15474;SDS011;7839;50.462;9.678;2022-10-20T02:39:03;7.57;;;1.63;;
15474;SDS011;7839;50.462;9.678;2022-10-20T02:45:43;0.50;;;0.50;;
15474;SDS011;7839;50.462;9.678;2022-10-20T02:52:24;0.50;;;0.50;;
15474;SDS011;7839;50.462;9.678;2022-10-20T02:59:04;6.07;;;1.30;;
15474;SDS011;7839;50.462;9.678;2022-10-20T03:05:44;18.13;;;1.90;;
15474;SDS011;7839;50.462;9.678;2022-10-20T03:12:26;52.50;;;3.13;;
15474;SDS011;7839;50.462;9.678;2022-10-20T03:19:06;19.23;;;2.83;;
15474;SDS011;7839;50.462;9.678;2022-10-20T03:25:46;44.35;;;3.72;;
15474;SDS011;7839;50.462;9.678;2022-10-20T03:32:28;1.17;;;0.80;;
15474;SDS011;7839;50.462;9.678;2022-10-20T03:39:08;0.40;;;0.40;;
15474;SDS011;7839;50.462;9.678;2022-10-20T03:45:56;10.63;;;1.43;;
15474;SDS011;7839;50.462;9.678;2022-10-20T03:52:39;0.50;;;0.47;;
15474;SDS011;7839;50.462;9.678;2022-10-20T03:59:19;10.20;;;1.67;;
15474;SDS011;7839;50.462;9.678;2022-10-20T04:06:00;0.28;;;0.28;;
15474;SDS011;7839;50.462;9.678;2022-10-20T04:12:40;0.40;;;0.40;;
15474;SDS011;7839;50.462;9.678;2022-10-20T04:19:21;24.83;;;3.20;;
15474;SDS011;7839;50.462;9.678;2022-10-20T04:26:08;0.40;;;0.40;;
15474;SDS011;7839;50.462;9.678;2022-10-20T04:32:50;0.20;;;0.20;;
15474;SDS011;7839;50.462;9.678;2022-10-20T04:39:30;0.23;;;0.23;;
15474;SDS011;7839;50.462;9.678;2022-10-20T04:46:11;0.10;;;0.10;;
15474;SDS011;7839;50.462;9.678;2022-10-20T04:52:51;0.30;;;0.30;;
15474;SDS011;7839;50.462;9.678;2022-10-20T04:59:31;0.20;;;0.20;;
15474;SDS011;7839;50.462;9.678;2022-10-20T05:12:52;0.30;;;0.30;;
15474;SDS011;7839;50.462;9.678;2022-10-20T05:19:32;39.93;;;2.67;;
15474;SDS011;7839;50.462;9.678;2022-10-20T05:26:15;0.20;;;0.20;;
15474;SDS011;7839;50.462;9.678;2022-10-20T05:32:56;0.37;;;0.37;;
15474;SDS011;7839;50.462;9.678;2022-10-20T05:39:36;0.20;;;0.20;;
15474;SDS011;7839;50.462;9.678;2022-10-20T05:46:17;0.10;;;0.10;;
15474;SDS011;7839;50.462;9.678;2022-10-20T05:52:57;0.47;;;0.30;;
15474;SDS011;7839;50.462;9.678;2022-10-20T05:59:38;0.47;;;0.30;;
15474;SDS011;7839;50.462;9.678;2022-10-20T06:06:19;0.30;;;0.30;;
15474;SDS011;7839;50.462;9.678;2022-10-20T06:12:59;1.73;;;1.63;;
15474;SDS011;7839;50.462;9.678;2022-10-20T06:19:40;0.30;;;0.30;;
15474;SDS011;7839;50.462;9.678;2022-10-20T06:26:22;0.20;;;0.20;;
15474;SDS011;7839;50.462;9.678;2022-10-20T06:33:02;0.80;;;0.33;;
15474;SDS011;7839;50.462;9.678;2022-10-20T06:39:44;2.00;;;1.07;;
15474;SDS011;7839;50.462;9.678;2022-10-20T06:46:26;0.20;;;0.20;;
15474;SDS011;7839;50.462;9.678;2022-10-20T06:53:06;1.37;;;1.27;;
15474;SDS011;7839;50.462;9.678;2022-10-20T06:59:47;2.03;;;1.80;;
15474;SDS011;7839;50.462;9.678;2022-10-20T07:06:28;0.50;;;0.50;;
15474;SDS011;7839;50.462;9.678;2022-10-20T07:13:09;0.63;;;0.63;;
15474;SDS011;7839;50.462;9.678;2022-10-20T07:19:50;4.70;;;3.60;;
15474;SDS011;7839;50.462;9.678;2022-10-20T07:26:31;0.73;;;0.73;;
15474;SDS011;7839;50.462;9.678;2022-10-20T07:33:12;0.60;;;0.60;;
15474;SDS011;7839;50.462;9.678;2022-10-20T07:39:53;0.70;;;0.70;;
15474;SDS011;7839;50.462;9.678;2022-10-20T07:46:33;3.13;;;2.83;;
15474;SDS011;7839;50.462;9.678;2022-10-20T07:53:14;10.03;;;5.63;;
15474;SDS011;7839;50.462;9.678;2022-10-20T07:59:57;1.57;;;1.30;;
15474;SDS011;7839;50.462;9.678;2022-10-20T08:06:37;1.80;;;1.70;;
15474;SDS011;7839;50.462;9.678;2022-10-20T08:13:17;1.60;;;1.50;;
15474;SDS011;7839;50.462;9.678;2022-10-20T08:19:58;5.13;;;4.63;;
15474;SDS011;7839;50.462;9.678;2022-10-20T08:26:38;1.47;;;1.23;;
15474;SDS011;7839;50.462;9.678;2022-10-20T08:33:18;10.97;;;8.90;;
15474;SDS011;7839;50.462;9.678;2022-10-20T08:39:58;2.20;;;1.53;;
15474;SDS011;7839;50.462;9.678;2022-10-20T08:46:39;2.03;;;1.70;;
15474;SDS011;7839;50.462;9.678;2022-10-20T08:53:20;2.23;;;1.73;;
15474;SDS011;7839;50.462;9.678;2022-10-20T09:00:12;1.63;;;1.53;;
15474;SDS011;7839;50.462;9.678;2022-10-20T09:06:55;1.37;;;1.27;;
15474;SDS011;7839;50.462;9.678;2022-10-20T09:13:36;1.83;;;1.73;;
15474;SDS011;7839;50.462;9.678;2022-10-20T09:20:21;1.63;;;1.47;;
15474;SDS011;7839;50.462;9.678;2022-10-20T09:27:19;1.80;;;1.70;;
15474;SDS011;7839;50.462;9.678;2022-10-20T09:33:59;2.20;;;1.40;;
15474;SDS011;7839;50.462;9.678;2022-10-20T09:40:53;1.50;;;1.40;;
15474;SDS011;7839;50.462;9.678;2022-10-20T09:47:35;4.13;;;3.10;;
15474;SDS011;7839;50.462;9.678;2022-10-20T09:54:16;2.92;;;2.63;;
15474;SDS011;7839;50.462;9.678;2022-10-20T10:01:01;1.63;;;1.53;;
15474;SDS011;7839;50.462;9.678;2022-10-20T10:07:42;1.50;;;1.40;;
15474;SDS011;7839;50.462;9.678;2022-10-20T10:14:22;1.53;;;1.43;;
15474;SDS011;7839;50.462;9.678;2022-10-20T10:21:09;1.70;;;1.60;;
15474;SDS011;7839;50.462;9.678;2022-10-20T10:28:27;1.50;;;1.40;;
15474;SDS011;7839;50.462;9.678;2022-10-20T10:55:37;1.77;;;1.67;;
15474;SDS011;7839;50.462;9.678;2022-10-20T11:09:21;2.43;;;2.33;;
15474;SDS011;7839;50.462;9.678;2022-10-20T11:23:00;2.37;;;2.23;;
15474;SDS011;7839;50.462;9.678;2022-10-20T11:29:48;2.80;;;2.60;;
15474;SDS011;7839;50.462;9.678;2022-10-20T11:36:34;2.87;;;2.67;;
15474;SDS011;7839;50.462;9.678;2022-10-20T11:43:49;2.67;;;2.53;;
15474;SDS011;7839;50.462;9.678;2022-10-20T11:50:21;2.70;;;2.50;;
15474;SDS011;7839;50.462;9.678;2022-10-20T11:57:04;3.27;;;3.00;;
15474;SDS011;7839;50.462;9.678;2022-10-20T12:17:35;2.87;;;2.67;;
15474;SDS011;7839;50.462;9.678;2022-10-20T12:31:11;3.17;;;2.70;;
15474;SDS011;7839;50.462;9.678;2022-10-20T12:37:58;3.27;;;2.97;;
15474;SDS011;7839;50.462;9.678;2022-10-20T12:44:42;3.53;;;3.23;;
15474;SDS011;7839;50.462;9.678;2022-10-20T12:51:34;3.50;;;3.20;;
15474;SDS011;7839;50.462;9.678;2022-10-20T13:04:58;3.67;;;2.83;;
15474;SDS011;7839;50.462;9.678;2022-10-20T13:11:41;3.20;;;2.83;;
15474;SDS011;7839;50.462;9.678;2022-10-20T13:18:24;2.77;;;2.50;;
15474;SDS011;7839;50.462;9.678;2022-10-20T13:25:12;3.33;;;2.60;;
15474;SDS011;7839;50.462;9.678;2022-10-20T13:45:33;2.90;;;2.67;;
15474;SDS011;7839;50.462;9.678;2022-10-20T13:52:20;2.97;;;2.50;;
15474;SDS011;7839;50.462;9.678;2022-10-20T13:59:02;2.83;;;2.63;;
15474;SDS011;7839;50.462;9.678;2022-10-20T14:05:43;2.37;;;2.17;;
15474;SDS011;7839;50.462;9.678;2022-10-20T14:12:23;2.47;;;2.27;;
15474;SDS011;7839;50.462;9.678;2022-10-20T14:19:10;2.53;;;2.20;;
15474;SDS011;7839;50.462;9.678;2022-10-20T14:25:51;5.53;;;3.10;;
15474;SDS011;7839;50.462;9.678;2022-10-20T14:32:34;3.20;;;2.80;;
15474;SDS011;7839;50.462;9.678;2022-10-20T14:39:31;2.63;;;2.43;;
15474;SDS011;7839;50.462;9.678;2022-10-20T14:46:26;2.00;;;1.77;;
15474;SDS011;7839;50.462;9.678;2022-10-20T15:00:31;2.47;;;2.20;;
15474;SDS011;7839;50.462;9.678;2022-10-20T15:07:22;3.43;;;3.10;;
15474;SDS011;7839;50.462;9.678;2022-10-20T15:14:11;2.00;;;1.90;;
15474;SDS011;7839;50.462;9.678;2022-10-20T15:20:53;1.90;;;1.80;;
15474;SDS011;7839;50.462;9.678;2022-10-20T15:27:34;2.10;;;2.00;;
15474;SDS011;7839;50.462;9.678;2022-10-20T15:34:14;3.40;;;3.17;;
15474;SDS011;7839;50.462;9.678;2022-10-20T15:40:56;3.93;;;3.63;;
15474;SDS011;7839;50.462;9.678;2022-10-20T15:47:38;3.80;;;3.50;;
15474;SDS011;7839;50.462;9.678;2022-10-20T15:54:20;4.40;;;4.00;;
15474;SDS011;7839;50.462;9.678;2022-10-20T16:01:01;4.10;;;3.80;;
15474;SDS011;7839;50.462;9.678;2022-10-20T16:07:41;3.80;;;3.50;;
15474;SDS011;7839;50.462;9.678;2022-10-20T16:14:22;4.37;;;3.47;;
15474;SDS011;7839;50.462;9.678;2022-10-20T16:21:03;4.20;;;3.70;;
15474;SDS011;7839;50.462;9.678;2022-10-20T16:27:43;3.50;;;3.20;;
15474;SDS011;7839;50.462;9.678;2022-10-20T16:34:24;3.47;;;3.17;;
15474;SDS011;7839;50.462;9.678;2022-10-20T16:41:07;3.40;;;3.10;;
15474;SDS011;7839;50.462;9.678;2022-10-20T16:47:49;3.33;;;3.03;;
15474;SDS011;7839;50.462;9.678;2022-10-20T16:54:29;3.50;;;3.20;;
15474;SDS011;7839;50.462;9.678;2022-10-20T17:01:10;3.53;;;3.23;;
15474;SDS011;7839;50.462;9.678;2022-10-20T17:07:51;5.53;;;5.03;;
15474;SDS011;7839;50.462;9.678;2022-10-20T17:14:31;3.40;;;3.10;;
15474;SDS011;7839;50.462;9.678;2022-10-20T17:21:13;8.90;;;8.00;;
15474;SDS011;7839;50.462;9.678;2022-10-20T17:27:53;3.20;;;3.00;;
15474;SDS011;7839;50.462;9.678;2022-10-20T17:34:33;3.23;;;2.93;;
15474;SDS011;7839;50.462;9.678;2022-10-20T17:41:14;2.87;;;2.67;;
15474;SDS011;7839;50.462;9.678;2022-10-20T17:47:55;3.30;;;3.00;;
15474;SDS011;7839;50.462;9.678;2022-10-20T17:54:40;2.70;;;2.50;;
15474;SDS011;7839;50.462;9.678;2022-10-20T18:01:32;3.07;;;2.57;;
15474;SDS011;7839;50.462;9.678;2022-10-20T18:08:12;3.07;;;2.67;;
15474;SDS011;7839;50.462;9.678;2022-10-20T18:14:54;2.30;;;2.10;;
15474;SDS011;7839;50.462;9.678;2022-10-20T18:21:36;2.10;;;2.00;;
15474;SDS011;7839;50.462;9.678;2022-10-20T18:28:16;2.67;;;2.47;;
15474;SDS011;7839;50.462;9.678;2022-10-20T18:34:57;2.30;;;2.10;;
15474;SDS011;7839;50.462;9.678;2022-10-20T18:41:38;2.77;;;2.57;;
15474;SDS011;7839;50.462;9.678;2022-10-20T18:48:19;2.93;;;2.63;;
15474;SDS011;7839;50.462;9.678;2022-10-20T18:54:59;3.73;;;3.40;;
15474;SDS011;7839;50.462;9.678;2022-10-20T19:01:41;3.50;;;3.20;;
15474;SDS011;7839;50.462;9.678;2022-10-20T19:08:21;3.13;;;2.90;;
15474;SDS011;7839;50.462;9.678;2022-10-20T19:15:01;3.17;;;2.80;;
15474;SDS011;7839;50.462;9.678;2022-10-20T19:21:42;2.90;;;2.70;;
15474;SDS011;7839;50.462;9.678;2022-10-20T19:28:22;3.40;;;3.10;;
15474;SDS011;7839;50.462;9.678;2022-10-20T19:35:03;4.13;;;3.73;;
15474;SDS011;7839;50.462;9.678;2022-10-20T19:41:43;5.03;;;3.93;;
15474;SDS011;7839;50.462;9.678;2022-10-20T19:48:23;5.00;;;4.10;;
15474;SDS011;7839;50.462;9.678;2022-10-20T19:55:04;5.23;;;4.70;;
15474;SDS011;7839;50.462;9.678;2022-10-20T20:01:44;5.40;;;4.90;;
15474;SDS011;7839;50.462;9.678;2022-10-20T20:08:25;8.23;;;6.83;;
15474;SDS011;7839;50.462;9.678;2022-10-20T20:15:05;8.40;;;7.00;;
15474;SDS011;7839;50.462;9.678;2022-10-20T20:21:45;7.27;;;6.17;;
15474;SDS011;7839;50.462;9.678;2022-10-20T20:28:26;4.77;;;4.37;;
15474;SDS011;7839;50.462;9.678;2022-10-20T20:35:06;5.37;;;4.87;;
15474;SDS011;7839;50.462;9.678;2022-10-20T20:41:47;5.03;;;4.30;;
15474;SDS011;7839;50.462;9.678;2022-10-20T20:48:27;9.50;;;7.60;;
15474;SDS011;7839;50.462;9.678;2022-10-20T20:55:10;6.40;;;5.27;;
15474;SDS011;7839;50.462;9.678;2022-10-20T21:01:52;4.40;;;3.97;;
15474;SDS011;7839;50.462;9.678;2022-10-20T21:08:33;3.50;;;3.27;;
15474;SDS011;7839;50.462;9.678;2022-10-20T21:15:13;3.70;;;3.13;;
15474;SDS011;7839;50.462;9.678;2022-10-20T21:21:53;4.27;;;3.87;;
15474;SDS011;7839;50.462;9.678;2022-10-20T21:28:37;3.47;;;3.27;;
15474;SDS011;7839;50.462;9.678;2022-10-20T21:35:19;3.33;;;3.00;;
15474;SDS011;7839;50.462;9.678;2022-10-20T21:41:59;3.00;;;2.70;;
15474;SDS011;7839;50.462;9.678;2022-10-20T21:48:41;2.80;;;2.60;;
15474;SDS011;7839;50.462;9.678;2022-10-20T21:55:21;2.67;;;2.47;;
15474;SDS011;7839;50.462;9.678;2022-10-20T22:02:04;6.07;;;4.30;;
15474;SDS011;7839;50.462;9.678;2022-10-20T22:08:46;3.23;;;2.60;;
15474;SDS011;7839;50.462;9.678;2022-10-20T22:15:27;2.83;;;2.63;;
15474;SDS011;7839;50.462;9.678;2022-10-20T22:22:08;3.30;;;2.97;;
15474;SDS011;7839;50.462;9.678;2022-10-20T22:28:49;2.87;;;2.67;;
15474;SDS011;7839;50.462;9.678;2022-10-20T22:35:29;8.63;;;5.70;;
15474;SDS011;7839;50.462;9.678;2022-10-20T22:42:09;4.27;;;3.90;;
15474;SDS011;7839;50.462;9.678;2022-10-20T22:48:50;2.90;;;2.60;;
15474;SDS011;7839;50.462;9.678;2022-10-20T23:02:13;2.80;;;2.57;;
15474;SDS011;7839;50.462;9.678;2022-10-20T23:08:54;3.50;;;3.20;;
15474;SDS011;7839;50.462;9.678;2022-10-20T23:15:37;3.07;;;2.87;;
15474;SDS011;7839;50.462;9.678;2022-10-20T23:22:17;2.80;;;2.60;;
15474;SDS011;7839;50.462;9.678;2022-10-20T23:28:57;3.10;;;2.90;;
15474;SDS011;7839;50.462;9.678;2022-10-20T23:35:38;2.80;;;2.60;;
15474;SDS011;7839;50.462;9.678;2022-10-20T23:42:18;4.13;;;2.75;;
15474;SDS011;7839;50.462;9.678;2022-10-20T23:48:59;2.77;;;2.57;;
15474;SDS011;7839;50.462;9.678;2022-10-20T23:55:39;3.57;;;3.20;;
